sensor_id;sensor_type;location;lat;lon;timestamp;pressure;altitude;pressure_sealevel;temperature;humidity
28927;BME280;16038;47.692;9.400;2023-02-21T00:01:05;97200.31;;;1.04;100.00
28927;BME280;16038;47.692;9.400;2023-02-21T00:03:48;97198.34;;;1.09;100.00
28927;BME280;16038;47.692;9.400;2023-02-21T00:06:33;97189.31;;;1.19;100.00
28927;BME280;16038;47.692;9.400;2023-02-21T00:09:16;97188.59;;;1.13;100.00
28927;BME280;16038;47.692;9.400;2023-02-21T00:12:00;97180.78;;;1.12;100.00
28927;BME280;16038;47.692;9.400;2023-02-21T00:14:44;97185.66;;;1.10;100.00
28927;BME280;16038;47.692;9.400;2023-02-21T00:17:28;97181.84;;;1.11;100.00
28927;BME280;16038;47.692;9.400;2023-02-21T00:20:12;97176.47;;;1.11;100.00
28927;BME280;16038;47.692;9.400;2023-02-21T00:22:56;97178.28;;;1.16;100.00
28927;BME280;16038;47.692;9.400;2023-02-21T00:25:40;97175.81;;;1.19;100.00
28927;BME280;16038;47.692;9.400;2023-02-21T00:28:24;97172.19;;;1.10;100.00
28927;BME280;16038;47.692;9.400;2023-02-21T00:31:08;97171.56;;;1.13;100.00
28927;BME280;16038;47.692;9.400;2023-02-21T00:33:52;97169.06;;;1.03;100.00
28927;BME280;16038;47.692;9.400;2023-02-21T00:36:36;97169.63;;;1.00;100.00
28927;BME280;16038;47.692;9.400;2023-02-21T00:39:20;97160.00;;;0.93;100.00
28927;BME280;16038;47.692;9.400;2023-02-21T00:42:04;97158.13;;;0.94;100.00
28927;BME280;16038;47.692;9.400;2023-02-21T00:44:48;97161.81;;;0.98;100.00
28927;BME280;16038;47.692;9.400;2023-02-21T00:47:32;97147.13;;;0.90;100.00
28927;BME280;16038;47.692;9.400;2023-02-21T00:50:16;97161.47;;;0.86;100.00
28927;BME280;16038;47.692;9.400;2023-02-21T00:53:00;97154.47;;;0.85;100.00
28927;BME280;16038;47.692;9.400;2023-02-21T00:55:44;97159.66;;;0.81;100.00
28927;BME280;16038;47.692;9.400;2023-02-21T00:58:28;97152.28;;;0.68;100.00
28927;BME280;16038;47.692;9.400;2023-02-21T01:01:12;97158.03;;;0.42;100.00
28927;BME280;16038;47.692;9.400;2023-02-21T01:03:57;97152.56;;;0.47;100.00
28927;BME280;16038;47.692;9.400;2023-02-21T01:06:40;97151.69;;;0.52;100.00
28927;BME280;16038;47.692;9.400;2023-02-21T01:09:25;97145.78;;;0.50;100.00
28927;BME280;16038;47.692;9.400;2023-02-21T01:12:09;97139.81;;;0.53;100.00
28927;BME280;16038;47.692;9.400;2023-02-21T01:14:52;97145.06;;;0.44;100.00
28927;BME280;16038;47.692;9.400;2023-02-21T01:17:36;97134.50;;;0.48;100.00
28927;BME280;16038;47.692;9.400;2023-02-21T01:20:20;97127.22;;;0.48;100.00
28927;BME280;16038;47.692;9.400;2023-02-21T01:23:04;97135.28;;;0.48;100.00
28927;BME280;16038;47.692;9.400;2023-02-21T01:25:48;97141.78;;;0.47;100.00
28927;BME280;16038;47.692;9.400;2023-02-21T01:28:32;97141.06;;;0.42;100.00
28927;BME280;16038;47.692;9.400;2023-02-21T01:31:19;97137.03;;;0.39;100.00
28927;BME280;16038;47.692;9.400;2023-02-21T01:34:03;97129.22;;;0.37;100.00
28927;BME280;16038;47.692;9.400;2023-02-21T01:36:47;97136.47;;;0.42;100.00
28927;BME280;16038;47.692;9.400;2023-02-21T01:39:31;97139.72;;;0.39;100.00
28927;BME280;16038;47.692;9.400;2023-02-21T01:42:15;97130.81;;;0.19;100.00
28927;BME280;16038;47.692;9.400;2023-02-21T01:48:02;97134.56;;;0.24;100.00
28927;BME280;16038;47.692;9.400;2023-02-21T01:50:46;97125.03;;;0.31;100.00
28927;BME280;16038;47.692;9.400;2023-02-21T01:53:30;97121.94;;;0.19;100.00
28927;BME280;16038;47.692;9.400;2023-02-21T01:56:15;97124.69;;;0.14;100.00
28927;BME280;16038;47.692;9.400;2023-02-21T01:58:59;97125.19;;;0.16;100.00
28927;BME280;16038;47.692;9.400;2023-02-21T02:04:34;97116.25;;;0.21;100.00
28927;BME280;16038;47.692;9.400;2023-02-21T02:07:18;97132.25;;;0.12;100.00
28927;BME280;16038;47.692;9.400;2023-02-21T02:10:03;97146.00;;;0.10;100.00
28927;BME280;16038;47.692;9.400;2023-02-21T02:18:00;97114.09;;;-0.26;100.00
28927;BME280;16038;47.692;9.400;2023-02-21T02:28:24;97107.88;;;-0.21;100.00
28927;BME280;16038;47.692;9.400;2023-02-21T02:31:54;97100.72;;;-0.07;100.00
28927;BME280;16038;47.692;9.400;2023-02-21T02:36:19;97099.91;;;-0.07;100.00
28927;BME280;16038;47.692;9.400;2023-02-21T02:41:18;97101.56;;;-0.11;100.00
28927;BME280;16038;47.692;9.400;2023-02-21T02:43:50;97101.44;;;-0.01;100.00
28927;BME280;16038;47.692;9.400;2023-02-21T02:46:36;97102.06;;;-0.09;100.00
28927;BME280;16038;47.692;9.400;2023-02-21T02:49:10;97097.44;;;-0.04;100.00
28927;BME280;16038;47.692;9.400;2023-02-21T02:51:36;97101.44;;;-0.01;100.00
28927;BME280;16038;47.692;9.400;2023-02-21T02:54:02;97097.13;;;-0.02;100.00
28927;BME280;16038;47.692;9.400;2023-02-21T02:56:27;97101.16;;;0.01;100.00
28927;BME280;16038;47.692;9.400;2023-02-21T03:09:26;97093.97;;;-0.28;100.00
28927;BME280;16038;47.692;9.400;2023-02-21T03:11:58;97106.91;;;-0.30;100.00
28927;BME280;16038;47.692;9.400;2023-02-21T03:14:27;97102.69;;;-0.66;100.00
28927;BME280;16038;47.692;9.400;2023-02-21T03:16:55;97107.19;;;-0.90;100.00
28927;BME280;16038;47.692;9.400;2023-02-21T03:19:24;97106.88;;;-1.13;100.00
28927;BME280;16038;47.692;9.400;2023-02-21T03:21:51;97094.88;;;-1.26;100.00
28927;BME280;16038;47.692;9.400;2023-02-21T03:24:18;97098.41;;;-1.36;100.00
28927;BME280;16038;47.692;9.400;2023-02-21T03:26:47;97096.25;;;-1.33;100.00
28927;BME280;16038;47.692;9.400;2023-02-21T03:29:14;97095.41;;;-1.29;100.00
28927;BME280;16038;47.692;9.400;2023-02-21T03:31:43;97101.69;;;-1.39;100.00
28927;BME280;16038;47.692;9.400;2023-02-21T03:34:08;97109.28;;;-1.51;100.00
28927;BME280;16038;47.692;9.400;2023-02-21T03:36:35;97101.00;;;-1.60;100.00
28927;BME280;16038;47.692;9.400;2023-02-21T03:39:01;97093.50;;;-1.63;100.00
28927;BME280;16038;47.692;9.400;2023-02-21T03:41:26;97099.66;;;-1.62;100.00
28927;BME280;16038;47.692;9.400;2023-02-21T03:43:52;97104.16;;;-1.47;100.00
28927;BME280;16038;47.692;9.400;2023-02-21T03:46:17;97103.31;;;-1.43;100.00
28927;BME280;16038;47.692;9.400;2023-02-21T03:48:42;97108.41;;;-1.41;100.00
28927;BME280;16038;47.692;9.400;2023-02-21T03:51:08;97103.53;;;-1.39;100.00
28927;BME280;16038;47.692;9.400;2023-02-21T03:53:33;97103.31;;;-1.43;100.00
28927;BME280;16038;47.692;9.400;2023-02-21T03:55:59;97103.03;;;-1.41;100.00
28927;BME280;16038;47.692;9.400;2023-02-21T03:58:24;97105.00;;;-1.57;100.00
28927;BME280;16038;47.692;9.400;2023-02-21T04:00:49;97104.84;;;-1.76;100.00
28927;BME280;16038;47.692;9.400;2023-02-21T04:03:16;97105.44;;;-1.89;100.00
28927;BME280;16038;47.692;9.400;2023-02-21T04:05:41;97105.72;;;-1.91;100.00
28927;BME280;16038;47.692;9.400;2023-02-21T04:08:07;97111.66;;;-1.94;100.00
28927;BME280;16038;47.692;9.400;2023-02-21T04:10:32;97095.81;;;-1.96;100.00
28927;BME280;16038;47.692;9.400;2023-02-21T04:12:57;97101.19;;;-1.96;100.00
28927;BME280;16038;47.692;9.400;2023-02-21T04:15:23;97102.47;;;-1.83;100.00
28927;BME280;16038;47.692;9.400;2023-02-21T04:17:48;97102.09;;;-1.66;100.00
28927;BME280;16038;47.692;9.400;2023-02-21T04:20:14;97099.91;;;-1.59;100.00
28927;BME280;16038;47.692;9.400;2023-02-21T04:22:39;97106.00;;;-1.48;100.00
28927;BME280;16038;47.692;9.400;2023-02-21T04:25:05;97107.59;;;-1.42;100.00
28927;BME280;16038;47.692;9.400;2023-02-21T04:27:30;97099.28;;;-1.40;100.00
28927;BME280;16038;47.692;9.400;2023-02-21T04:29:55;97099.50;;;-1.37;100.00
28927;BME280;16038;47.692;9.400;2023-02-21T04:32:21;97105.03;;;-1.23;100.00
28927;BME280;16038;47.692;9.400;2023-02-21T04:34:46;97105.00;;;-1.18;100.00
28927;BME280;16038;47.692;9.400;2023-02-21T04:37:11;97101.59;;;-1.28;100.00
28927;BME280;16038;47.692;9.400;2023-02-21T04:39:37;97099.91;;;-1.59;100.00
28927;BME280;16038;47.692;9.400;2023-02-21T04:42:02;97097.59;;;-1.76;100.00
28927;BME280;16038;47.692;9.400;2023-02-21T04:44:28;97103.50;;;-1.74;100.00
28927;BME280;16038;47.692;9.400;2023-02-21T04:46:53;97091.53;;;-1.52;100.00
28927;BME280;16038;47.692;9.400;2023-02-21T04:49:18;97101.97;;;-1.40;100.00
28927;BME280;16038;47.692;9.400;2023-02-21T04:51:43;97097.56;;;-1.26;100.00
28927;BME280;16038;47.692;9.400;2023-02-21T04:54:09;97099.09;;;-1.20;100.00
28927;BME280;16038;47.692;9.400;2023-02-21T04:56:34;97106.81;;;-1.08;100.00
28927;BME280;16038;47.692;9.400;2023-02-21T04:59:01;97105.41;;;-1.00;100.00
28927;BME280;16038;47.692;9.400;2023-02-21T05:01:27;97106.44;;;-0.96;100.00
28927;BME280;16038;47.692;9.400;2023-02-21T05:03:54;97107.31;;;-1.01;100.00
28927;BME280;16038;47.692;9.400;2023-02-21T05:06:20;97104.38;;;-1.04;100.00
28927;BME280;16038;47.692;9.400;2023-02-21T05:08:46;97111.38;;;-1.08;100.00
28927;BME280;16038;47.692;9.400;2023-02-21T05:11:11;97101.69;;;-1.04;100.00
28927;BME280;16038;47.692;9.400;2023-02-21T05:13:36;97112.09;;;-0.98;100.00
28927;BME280;16038;47.692;9.400;2023-02-21T05:16:02;97094.97;;;-1.07;100.00
28927;BME280;16038;47.692;9.400;2023-02-21T05:18:27;97092.19;;;-1.26;100.00
28927;BME280;16038;47.692;9.400;2023-02-21T05:20:53;97088.44;;;-1.30;100.00
28927;BME280;16038;47.692;9.400;2023-02-21T05:23:18;97090.03;;;-1.29;100.00
28927;BME280;16038;47.692;9.400;2023-02-21T05:26:10;97092.22;;;-1.31;100.00
28927;BME280;16038;47.692;9.400;2023-02-21T05:28:36;97108.44;;;-1.46;100.00
28927;BME280;16038;47.692;9.400;2023-02-21T05:31:02;97105.22;;;-1.48;100.00
28927;BME280;16038;47.692;9.400;2023-02-21T05:33:27;97100.66;;;-1.48;100.00
28927;BME280;16038;47.692;9.400;2023-02-21T05:35:53;97107.34;;;-1.40;100.00
28927;BME280;16038;47.692;9.400;2023-02-21T05:38:19;97102.44;;;-1.33;100.00
28927;BME280;16038;47.692;9.400;2023-02-21T05:40:45;97107.47;;;-1.26;100.00
28927;BME280;16038;47.692;9.400;2023-02-21T05:43:11;97103.41;;;-1.19;100.00
28927;BME280;16038;47.692;9.400;2023-02-21T05:45:36;97115.16;;;-1.09;100.00
28927;BME280;16038;47.692;9.400;2023-02-21T05:48:02;97110.59;;;-1.09;100.00
28927;BME280;16038;47.692;9.400;2023-02-21T05:50:28;97111.25;;;-1.22;100.00
28927;BME280;16038;47.692;9.400;2023-02-21T05:52:54;97107.09;;;-1.44;100.00
28927;BME280;16038;47.692;9.400;2023-02-21T05:55:19;97107.13;;;-1.49;100.00
28927;BME280;16038;47.692;9.400;2023-02-21T05:57:44;97116.13;;;-1.29;100.00
28927;BME280;16038;47.692;9.400;2023-02-21T06:00:14;97117.66;;;-1.18;100.00
28927;BME280;16038;47.692;9.400;2023-02-21T06:02:40;97116.84;;;-1.19;100.00
28927;BME280;16038;47.692;9.400;2023-02-21T06:05:05;97116.19;;;-1.40;100.00
28927;BME280;16038;47.692;9.400;2023-02-21T06:07:31;97119.41;;;-1.38;100.00
28927;BME280;16038;47.692;9.400;2023-02-21T06:09:56;97122.84;;;-1.32;100.00
28927;BME280;16038;47.692;9.400;2023-02-21T06:12:21;97119.53;;;-1.19;100.00
28927;BME280;16038;47.692;9.400;2023-02-21T06:14:47;97119.78;;;-1.15;100.00
28927;BME280;16038;47.692;9.400;2023-02-21T06:17:12;97126.06;;;-1.30;100.00
28927;BME280;16038;47.692;9.400;2023-02-21T06:19:37;97124.97;;;-1.29;100.00
28927;BME280;16038;47.692;9.400;2023-02-21T06:22:03;97126.13;;;-1.40;100.00
28927;BME280;16038;47.692;9.400;2023-02-21T06:24:28;97120.09;;;-1.66;100.00
28927;BME280;16038;47.692;9.400;2023-02-21T06:26:53;97127.44;;;-1.82;100.00
28927;BME280;16038;47.692;9.400;2023-02-21T06:29:19;97131.78;;;-1.92;100.00
28927;BME280;16038;47.692;9.400;2023-02-21T06:31:44;97127.25;;;-1.96;100.00
28927;BME280;16038;47.692;9.400;2023-02-21T06:34:10;97130.72;;;-1.96;100.00
28927;BME280;16038;47.692;9.400;2023-02-21T06:36:35;97131.25;;;-1.94;100.00
28927;BME280;16038;47.692;9.400;2023-02-21T06:39:01;97125.38;;;-2.06;100.00
28927;BME280;16038;47.692;9.400;2023-02-21T06:41:28;97124.34;;;-2.15;100.00
28927;BME280;16038;47.692;9.400;2023-02-21T06:43:54;97125.47;;;-2.21;100.00
28927;BME280;16038;47.692;9.400;2023-02-21T06:46:20;97123.03;;;-2.23;100.00
28927;BME280;16038;47.692;9.400;2023-02-21T06:48:46;97122.69;;;-2.01;100.00
28927;BME280;16038;47.692;9.400;2023-02-21T06:51:11;97135.16;;;-1.70;100.00
28927;BME280;16038;47.692;9.400;2023-02-21T06:53:38;97137.22;;;-1.52;100.00
28927;BME280;16038;47.692;9.400;2023-02-21T06:56:04;97138.88;;;-1.17;100.00
28927;BME280;16038;47.692;9.400;2023-02-21T06:58:29;97138.13;;;-0.59;100.00
28927;BME280;16038;47.692;9.400;2023-02-21T07:00:55;97139.81;;;-0.39;100.00
28927;BME280;16038;47.692;9.400;2023-02-21T07:03:20;97139.13;;;-0.49;100.00
28927;BME280;16038;47.692;9.400;2023-02-21T07:05:45;97147.50;;;-0.27;100.00
28927;BME280;16038;47.692;9.400;2023-02-21T07:08:11;97158.06;;;-0.30;100.00
28927;BME280;16038;47.692;9.400;2023-02-21T07:10:36;97155.03;;;-0.53;100.00
28927;BME280;16038;47.692;9.400;2023-02-21T07:13:01;97161.38;;;-0.44;100.00
28927;BME280;16038;47.692;9.400;2023-02-21T07:15:27;97165.63;;;-0.08;100.00
28927;BME280;16038;47.692;9.400;2023-02-21T07:17:52;97170.53;;;0.09;100.00
28927;BME280;16038;47.692;9.400;2023-02-21T07:20:17;97156.84;;;0.48;100.00
28927;BME280;16038;47.692;9.400;2023-02-21T07:22:43;97158.13;;;0.75;100.00
28927;BME280;16038;47.692;9.400;2023-02-21T07:25:11;97155.34;;;0.99;100.00
28927;BME280;16038;47.692;9.400;2023-02-21T07:27:37;97157.78;;;1.14;100.00
28927;BME280;16038;47.692;9.400;2023-02-21T07:30:03;97150.75;;;1.32;100.00
28927;BME280;16038;47.692;9.400;2023-02-21T07:32:28;97159.00;;;1.41;100.00
28927;BME280;16038;47.692;9.400;2023-02-21T07:34:54;97160.06;;;1.40;100.00
28927;BME280;16038;47.692;9.400;2023-02-21T07:37:19;97163.47;;;1.13;100.00
28927;BME280;16038;47.692;9.400;2023-02-21T07:39:44;97161.41;;;1.43;100.00
28927;BME280;16038;47.692;9.400;2023-02-21T07:42:09;97162.06;;;1.81;100.00
28927;BME280;16038;47.692;9.400;2023-02-21T07:44:35;97167.19;;;2.24;100.00
28927;BME280;16038;47.692;9.400;2023-02-21T07:47:00;97165.41;;;2.70;100.00
28927;BME280;16038;47.692;9.400;2023-02-21T07:49:26;97172.03;;;3.14;100.00
28927;BME280;16038;47.692;9.400;2023-02-21T07:51:51;97171.09;;;3.64;100.00
28927;BME280;16038;47.692;9.400;2023-02-21T07:54:16;97168.34;;;4.27;100.00
28927;BME280;16038;47.692;9.400;2023-02-21T07:56:43;97164.38;;;4.33;100.00
28927;BME280;16038;47.692;9.400;2023-02-21T07:59:08;97160.63;;;4.60;100.00
28927;BME280;16038;47.692;9.400;2023-02-21T08:01:33;97164.78;;;4.75;100.00
28927;BME280;16038;47.692;9.400;2023-02-21T08:03:58;97161.78;;;4.94;100.00
28927;BME280;16038;47.692;9.400;2023-02-21T08:06:24;97152.19;;;4.88;100.00
28927;BME280;16038;47.692;9.400;2023-02-21T08:08:49;97153.94;;;5.27;100.00
28927;BME280;16038;47.692;9.400;2023-02-21T08:11:14;97154.41;;;5.47;100.00
28927;BME280;16038;47.692;9.400;2023-02-21T08:13:39;97152.59;;;5.77;98.27
28927;BME280;16038;47.692;9.400;2023-02-21T08:16:05;97147.59;;;6.35;89.73
28927;BME280;16038;47.692;9.400;2023-02-21T08:18:30;97151.47;;;7.27;85.49
28927;BME280;16038;47.692;9.400;2023-02-21T08:20:55;97160.81;;;8.05;80.90
28927;BME280;16038;47.692;9.400;2023-02-21T08:23:21;97157.66;;;8.40;80.60
28927;BME280;16038;47.692;9.400;2023-02-21T08:25:47;97149.28;;;9.67;73.85
28927;BME280;16038;47.692;9.400;2023-02-21T08:28:15;97152.91;;;8.61;74.30
28927;BME280;16038;47.692;9.400;2023-02-21T08:30:41;97157.19;;;8.38;77.90
28927;BME280;16038;47.692;9.400;2023-02-21T08:33:06;97155.97;;;8.72;76.87
28927;BME280;16038;47.692;9.400;2023-02-21T08:35:32;97155.00;;;8.93;73.90
28927;BME280;16038;47.692;9.400;2023-02-21T08:37:57;97159.03;;;9.24;72.06
28927;BME280;16038;47.692;9.400;2023-02-21T08:40:27;97148.97;;;9.40;71.89
28927;BME280;16038;47.692;9.400;2023-02-21T08:42:55;97148.50;;;10.42;68.05
28927;BME280;16038;47.692;9.400;2023-02-21T08:45:21;97142.72;;;10.63;68.31
28927;BME280;16038;47.692;9.400;2023-02-21T08:47:47;97151.84;;;12.23;60.72
28927;BME280;16038;47.692;9.400;2023-02-21T08:50:12;97152.16;;;12.95;59.06
28927;BME280;16038;47.692;9.400;2023-02-21T08:52:38;97146.53;;;13.45;56.48
28927;BME280;16038;47.692;9.400;2023-02-21T08:55:04;97144.78;;;12.49;58.68
28927;BME280;16038;47.692;9.400;2023-02-21T08:57:29;97151.19;;;13.10;58.58
28927;BME280;16038;47.692;9.400;2023-02-21T08:59:55;97142.47;;;13.05;58.56
28927;BME280;16038;47.692;9.400;2023-02-21T09:02:21;97139.53;;;13.47;57.74
28927;BME280;16038;47.692;9.400;2023-02-21T09:04:49;97137.47;;;12.84;59.48
28927;BME280;16038;47.692;9.400;2023-02-21T09:07:15;97142.78;;;14.35;55.28
28927;BME280;16038;47.692;9.400;2023-02-21T09:09:40;97134.31;;;14.58;53.42
28927;BME280;16038;47.692;9.400;2023-02-21T09:12:06;97135.25;;;13.53;55.33
28927;BME280;16038;47.692;9.400;2023-02-21T09:14:33;97129.22;;;12.57;61.26
28927;BME280;16038;47.692;9.400;2023-02-21T09:16:58;97123.31;;;13.76;58.95
28927;BME280;16038;47.692;9.400;2023-02-21T09:19:24;97118.72;;;14.77;54.64
28927;BME280;16038;47.692;9.400;2023-02-21T09:21:49;97125.63;;;14.11;56.53
28927;BME280;16038;47.692;9.400;2023-02-21T09:24:19;97125.75;;;14.26;54.23
28927;BME280;16038;47.692;9.400;2023-02-21T09:26:49;97125.63;;;14.11;55.83
28927;BME280;16038;47.692;9.400;2023-02-21T09:29:18;97121.00;;;14.19;55.21
28927;BME280;16038;47.692;9.400;2023-02-21T09:31:43;97115.09;;;13.42;57.99
28927;BME280;16038;47.692;9.400;2023-02-21T09:34:08;97117.97;;;13.23;57.54
28927;BME280;16038;47.692;9.400;2023-02-21T09:36:34;97115.09;;;13.80;56.64
28927;BME280;16038;47.692;9.400;2023-02-21T09:38:59;97110.53;;;13.94;56.40
28927;BME280;16038;47.692;9.400;2023-02-21T09:41:26;97112.47;;;13.90;55.58
28927;BME280;16038;47.692;9.400;2023-02-21T09:43:52;97104.66;;;13.58;56.99
28927;BME280;16038;47.692;9.400;2023-02-21T09:46:52;97109.72;;;13.90;56.97
28927;BME280;16038;47.692;9.400;2023-02-21T09:51:48;97105.69;;;14.74;53.56
28927;BME280;16038;47.692;9.400;2023-02-21T09:54:36;97099.69;;;14.12;55.45
28927;BME280;16038;47.692;9.400;2023-02-21T09:57:01;97084.03;;;14.24;55.35
28927;BME280;16038;47.692;9.400;2023-02-21T09:59:27;97090.78;;;13.85;54.81
28927;BME280;16038;47.692;9.400;2023-02-21T10:02:08;97077.47;;;14.98;54.48
28927;BME280;16038;47.692;9.400;2023-02-21T10:18:04;97077.69;;;13.75;56.98
28927;BME280;16038;47.692;9.400;2023-02-21T10:22:58;97069.56;;;14.97;52.67
28927;BME280;16038;47.692;9.400;2023-02-21T10:25:26;97068.19;;;15.49;51.80
28927;BME280;16038;47.692;9.400;2023-02-21T10:27:53;97070.19;;;14.65;55.17
28927;BME280;16038;47.692;9.400;2023-02-21T10:30:26;97064.06;;;15.00;53.66
28927;BME280;16038;47.692;9.400;2023-02-21T10:32:53;97065.75;;;15.26;53.00
28927;BME280;16038;47.692;9.400;2023-02-21T10:35:19;97067.91;;;15.80;51.55
28927;BME280;16038;47.692;9.400;2023-02-21T10:37:45;97075.84;;;16.28;50.13
28927;BME280;16038;47.692;9.400;2023-02-21T10:43:08;97071.88;;;16.22;50.23
28927;BME280;16038;47.692;9.400;2023-02-21T10:45:35;97074.22;;;15.88;49.49
28927;BME280;16038;47.692;9.400;2023-02-21T10:48:09;97065.13;;;15.80;50.37
28927;BME280;16038;47.692;9.400;2023-02-21T10:53:29;97072.91;;;14.13;53.40
28927;BME280;16038;47.692;9.400;2023-02-21T10:58:38;97063.25;;;14.33;54.20
28927;BME280;16038;47.692;9.400;2023-02-21T11:01:40;97059.19;;;14.20;53.42
28927;BME280;16038;47.692;9.400;2023-02-21T11:03:56;97053.75;;;14.27;53.34
28927;BME280;16038;47.692;9.400;2023-02-21T11:06:25;97054.69;;;14.46;52.66
28927;BME280;16038;47.692;9.400;2023-02-21T11:08:51;97055.78;;;14.97;51.23
28927;BME280;16038;47.692;9.400;2023-02-21T11:11:30;97045.38;;;14.68;52.19
28927;BME280;16038;47.692;9.400;2023-02-21T11:14:04;97044.59;;;14.68;52.08
28927;BME280;16038;47.692;9.400;2023-02-21T11:16:30;97037.69;;;14.40;53.10
28927;BME280;16038;47.692;9.400;2023-02-21T11:19:05;97032.47;;;14.21;53.11
28927;BME280;16038;47.692;9.400;2023-02-21T11:21:31;97032.28;;;13.54;54.63
28927;BME280;16038;47.692;9.400;2023-02-21T11:23:58;97025.59;;;13.55;54.66
28927;BME280;16038;47.692;9.400;2023-02-21T11:26:27;97015.69;;;13.13;54.67
28927;BME280;16038;47.692;9.400;2023-02-21T11:28:54;97018.63;;;13.65;53.76
28927;BME280;16038;47.692;9.400;2023-02-21T11:31:32;97013.41;;;13.98;53.36
28927;BME280;16038;47.692;9.400;2023-02-21T11:33:58;97002.44;;;14.05;52.67
28927;BME280;16038;47.692;9.400;2023-02-21T11:36:31;97005.56;;;14.59;51.66
28927;BME280;16038;47.692;9.400;2023-02-21T11:43:56;96993.19;;;15.19;49.82
28927;BME280;16038;47.692;9.400;2023-02-21T11:54:29;96982.25;;;15.62;48.36
28927;BME280;16038;47.692;9.400;2023-02-21T11:59:45;96968.31;;;16.70;46.06
28927;BME280;16038;47.692;9.400;2023-02-21T12:04:43;96959.41;;;18.64;41.80
28927;BME280;16038;47.692;9.400;2023-02-21T12:12:20;96933.25;;;17.86;42.05
28927;BME280;16038;47.692;9.400;2023-02-21T12:20:21;96914.09;;;17.57;42.83
28927;BME280;16038;47.692;9.400;2023-02-21T12:22:54;96908.19;;;17.51;43.08
28927;BME280;16038;47.692;9.400;2023-02-21T12:25:39;96900.91;;;17.19;44.20
28927;BME280;16038;47.692;9.400;2023-02-21T12:33:31;96886.75;;;17.07;43.70
28927;BME280;16038;47.692;9.400;2023-02-21T12:36:04;96883.75;;;17.39;44.06
28927;BME280;16038;47.692;9.400;2023-02-21T12:41:11;96867.50;;;18.31;42.02
28927;BME280;16038;47.692;9.400;2023-02-21T12:43:44;96869.13;;;17.87;42.28
28927;BME280;16038;47.692;9.400;2023-02-21T12:51:27;96853.16;;;17.08;43.85
28927;BME280;16038;47.692;9.400;2023-02-21T12:53:59;96845.81;;;16.80;44.66
28927;BME280;16038;47.692;9.400;2023-02-21T12:56:48;96835.78;;;16.27;45.91
28927;BME280;16038;47.692;9.400;2023-02-21T13:02:23;96828.75;;;15.97;47.48
28927;BME280;16038;47.692;9.400;2023-02-21T13:05:10;96822.88;;;15.73;47.29
28927;BME280;16038;47.692;9.400;2023-02-21T13:07:40;96814.59;;;15.80;48.06
28927;BME280;16038;47.692;9.400;2023-02-21T13:10:27;96808.72;;;15.57;48.21
28927;BME280;16038;47.692;9.400;2023-02-21T13:13:11;96804.41;;;15.02;48.69
28927;BME280;16038;47.692;9.400;2023-02-21T13:15:39;96798.06;;;14.80;49.87
28927;BME280;16038;47.692;9.400;2023-02-21T13:18:20;96794.06;;;14.48;50.25
28927;BME280;16038;47.692;9.400;2023-02-21T13:20:52;96790.72;;;13.96;50.51
28927;BME280;16038;47.692;9.400;2023-02-21T13:29:22;96770.78;;;12.92;54.72
28927;BME280;16038;47.692;9.400;2023-02-21T13:31:54;96773.47;;;12.85;55.54
28927;BME280;16038;47.692;9.400;2023-02-21T13:34:24;96773.03;;;12.79;54.39
28927;BME280;16038;47.692;9.400;2023-02-21T13:36:51;96766.25;;;12.69;55.16
28927;BME280;16038;47.692;9.400;2023-02-21T13:39:26;96760.28;;;12.60;55.92
28927;BME280;16038;47.692;9.400;2023-02-21T13:42:18;96762.38;;;12.33;56.18
28927;BME280;16038;47.692;9.400;2023-02-21T13:44:42;96757.25;;;12.31;56.17
28927;BME280;16038;47.692;9.400;2023-02-21T13:49:41;96746.84;;;12.51;55.60
28927;BME280;16038;47.692;9.400;2023-02-21T13:57:32;96736.38;;;12.60;54.55
28927;BME280;16038;47.692;9.400;2023-02-21T13:59:57;96729.69;;;12.61;54.27
28927;BME280;16038;47.692;9.400;2023-02-21T14:02:27;96725.38;;;12.60;54.63
28927;BME280;16038;47.692;9.400;2023-02-21T14:04:59;96725.13;;;12.80;53.92
28927;BME280;16038;47.692;9.400;2023-02-21T14:07:38;96717.81;;;12.98;54.25
28927;BME280;16038;47.692;9.400;2023-02-21T14:10:04;96722.16;;;13.03;53.17
28927;BME280;16038;47.692;9.400;2023-02-21T14:12:37;96710.78;;;13.05;53.81
28927;BME280;16038;47.692;9.400;2023-02-21T14:15:07;96704.47;;;13.00;53.64
28927;BME280;16038;47.692;9.400;2023-02-21T14:17:32;96708.00;;;13.01;54.22
28927;BME280;16038;47.692;9.400;2023-02-21T14:20:00;96703.59;;;12.86;53.65
28927;BME280;16038;47.692;9.400;2023-02-21T14:22:27;96707.31;;;13.11;54.73
28927;BME280;16038;47.692;9.400;2023-02-21T14:27:48;96695.03;;;13.64;53.38
28927;BME280;16038;47.692;9.400;2023-02-21T14:30:36;96695.06;;;13.75;53.15
28927;BME280;16038;47.692;9.400;2023-02-21T14:33:16;96692.34;;;13.86;53.09
28927;BME280;16038;47.692;9.400;2023-02-21T14:38:42;96678.69;;;14.25;51.57
28927;BME280;16038;47.692;9.400;2023-02-21T14:43:55;96668.44;;;14.22;51.80
28927;BME280;16038;47.692;9.400;2023-02-21T15:05:35;96647.13;;;13.80;54.04
28927;BME280;16038;47.692;9.400;2023-02-21T15:10:43;96636.53;;;14.00;54.37
28927;BME280;16038;47.692;9.400;2023-02-21T15:13:20;96639.28;;;13.85;53.73
28927;BME280;16038;47.692;9.400;2023-02-21T15:15:46;96642.03;;;13.89;53.78
28927;BME280;16038;47.692;9.400;2023-02-21T15:18:21;96635.31;;;13.86;53.26
28927;BME280;16038;47.692;9.400;2023-02-21T15:21:00;96635.31;;;13.83;52.96
28927;BME280;16038;47.692;9.400;2023-02-21T15:23:26;96621.50;;;13.68;53.51
28927;BME280;16038;47.692;9.400;2023-02-21T15:25:56;96624.66;;;13.63;54.41
28927;BME280;16038;47.692;9.400;2023-02-21T15:28:24;96617.16;;;13.53;54.95
28927;BME280;16038;47.692;9.400;2023-02-21T15:31:23;96615.19;;;13.53;55.02
28927;BME280;16038;47.692;9.400;2023-02-21T15:33:42;96613.66;;;13.63;54.80
28927;BME280;16038;47.692;9.400;2023-02-21T15:36:28;96609.28;;;13.55;55.49
28927;BME280;16038;47.692;9.400;2023-02-21T15:41:39;96600.91;;;13.30;56.16
28927;BME280;16038;47.692;9.400;2023-02-21T15:46:44;96597.78;;;13.28;56.71
28927;BME280;16038;47.692;9.400;2023-02-21T15:49:17;96589.09;;;13.18;57.48
28927;BME280;16038;47.692;9.400;2023-02-21T15:51:44;96588.28;;;13.11;57.21